Terminal Aerodrome Forecast
Issued by NWS

Home | Current Version | Previous Version | Text Only | Print | Product List | Glossary On
Versions: 1 2 3 4 5 6 7 8 9 10 11 12 13 14 15 16 17 18 19 20 21 22 23 24 25
000
FTUS43 KGRR 031100 RRA
TAFMKG
TAF
KMKG 031148Z 0312/0412 14012KT 2SM -SN OVC025
     FM031500 16016G25KT 3/4SM -SN BR OVC007
     FM032000 21016G25KT 2SM -SNPL BR OVC004
     FM040000 25014G24KT 6SM -FZDZ BR OVC012
     FM040300 30012KT P6SM OVC025=

USA.gov is the U.S. government's official web portal to all federal, state and local government web resources and services.